Terminal Aerodrome Forecast
Issued by NWS

Home | Current Version | Previous Version | Text Only | Print | Product List | Glossary On
Versions: 1 2 3 4 5 6 7 8 9 10 11 12 13 14 15 16 17 18 19 20 21 22 23 24 25 26 27 28 29 30 31
000
FTUS43 KDVN 271908 AAA
TAFBRL
TAF AMD
KBRL 271908Z 2719/2818 06003KT P6SM -RA OVC011
     FM272100 36006KT P6SM OVC012
      TEMPO 2721/2724 4SM -DZ BR BKN008
     FM280200 02004KT 3SM BR OVC008
     FM281100 02005KT 2SM BR OVC004
     FM281600 05007KT 5SM BR OVC012=

USA.gov is the U.S. government's official web portal to all federal, state and local government web resources and services.